Cansado, Mauritania
Current Conditions -  °F | °C
As of 6:00 PM on Friday 19 Dec 2014 (Local Time) from GQPP Reporting Station
Sand / Dust Storm Sand / Dust Storm  
Wind Chill: 75°   Ceiling: Unl
Heat Index: 75°   Visibility: 4mi
Dew Point: 48°   Wind: 9mph
Humidity: 38%   Direction: 40°NE
Pressure: 30.06"   Gusts: NA
Location:  20.85°N, 17.03°W
Report Text: GQPP 191800Z 04008KT 6000 VCBLDU NSC 24/09 Q1018 NOSIG
Loading
Personal Weather Stations






























Interactive Weather Map New forecast layout! Learn more

10-Day Weather Forecast

Advertisements
Track Severe Weather on mobile